Time;durP1;ratioP1;P1;durP2;ratioP2;P2;SDS_P1;SDS_P2;PMS_P1;PMS_P2;Temp;Humidity;BMP_temperature;BMP_pressure;BME280_temperature;BME280_humidity;BME280_pressure;Samples;Min_cycle;Max_cycle;Signal;HPM_P1;HPM_P2
2021/11/06 04:32:06;;;;;;;40.10;20.90;;;;;;;9.53;63.67;100065.69;7584001;23;20241;-80
2021/11/06 04:35:27;;;;;;;34.70;19.30;;;;;;;9.72;62.96;100060.81;6915405;28;20262;-81
2021/11/06 04:38:49;;;;;;;32.67;18.60;;;;;;;9.53;62.75;100063.84;6919721;28;20822;-79
2021/11/06 04:42:11;;;;;;;33.23;18.83;;;;;;;9.34;63.49;100063.31;6919839;28;20229;-79
2021/11/06 04:45:32;;;;;;;27.90;18.03;;;;;;;9.84;62.27;100062.16;6919438;28;20557;-79
2021/11/06 04:48:55;;;;;;;28.73;17.83;;;;;;;9.81;62.01;100054.38;6919580;28;20239;-80
2021/11/06 04:52:17;;;;;;;29.60;17.93;;;;;;;9.75;61.67;100038.09;6919476;28;20262;-79
2021/11/06 04:55:38;;;;;;;28.23;16.90;;;;;;;8.88;62.32;100001.19;6918379;28;20790;-80
2021/11/06 04:59:00;;;;;;;25.53;16.93;;;;;;;9.52;62.23;100062.13;6919235;28;20213;-80
2021/11/06 05:02:22;;;;;;;30.00;17.23;;;;;;;9.47;61.96;100031.38;6918907;28;20327;-79
2021/11/06 05:05:45;;;;;;;24.93;17.07;;;;;;;9.37;62.75;100063.84;6906053;28;20215;-79
2021/11/06 05:09:06;;;;;;;30.37;17.83;;;;;;;8.99;62.21;99993.66;6891561;28;20249;-82
2021/11/06 05:12:28;;;;;;;29.13;17.70;;;;;;;9.40;62.98;100071.56;6890863;28;20249;-79
2021/11/06 05:15:50;;;;;;;24.97;16.70;;;;;;;9.19;62.75;100044.31;6890768;28;20234;-79
2021/11/06 05:19:11;;;;;;;25.83;17.30;;;;;;;9.23;63.57;100064.50;6891495;28;20232;-80
2021/11/06 05:22:34;;;;;;;23.97;17.23;;;;;;;9.36;63.02;100037.94;6890874;28;20241;-81
2021/11/06 05:25:56;;;;;;;21.77;15.27;;;;;;;9.86;62.25;100070.06;6890477;28;20246;-80
2021/11/06 05:29:19;;;;;;;37.13;21.73;;;;;;;9.49;62.73;100075.94;6871575;28;20207;-80
2021/11/06 05:32:41;;;;;;;28.93;18.63;;;;;;;9.61;62.22;100074.63;6862888;28;20342;-79
2021/11/06 05:36:03;;;;;;;31.90;18.93;;;;;;;9.58;62.59;100069.53;6870682;28;20249;-80
2021/11/06 05:39:26;;;;;;;23.90;16.27;;;;;;;10.04;61.45;100090.44;6890541;28;20215;-80
2021/11/06 05:42:48;;;;;;;24.37;15.57;;;;;;;9.96;61.47;100079.66;6890842;28;20233;-81
2021/11/06 05:46:09;;;;;;;22.83;15.57;;;;;;;9.92;61.61;100077.47;6880925;28;20203;-80
2021/11/06 05:49:31;;;;;;;22.80;16.23;;;;;;;9.79;61.86;100079.81;6863877;28;20248;-78
2021/11/06 05:52:53;;;;;;;28.07;17.63;;;;;;;9.67;62.83;100082.00;6862895;28;20262;-80
2021/11/06 05:56:16;;;;;;;30.17;20.20;;;;;;;9.59;63.11;100081.16;6879223;28;20247;-80
2021/11/06 05:59:38;;;;;;;30.47;19.07;;;;;;;9.66;62.83;100069.56;6867844;28;20226;-79
2021/11/06 06:03:00;;;;;;;28.73;19.30;;;;;;;10.16;62.24;100089.06;6863578;28;20279;-79
2021/11/06 06:06:22;;;;;;;29.80;19.60;;;;;;;10.06;61.93;100068.72;6862860;28;20209;-80
2021/11/06 06:09:44;;;;;;;29.70;18.23;;;;;;;10.14;61.27;100080.31;6887103;28;20203;-78
2021/11/06 06:13:07;;;;;;;36.20;20.57;;;;;;;9.91;61.89;100078.44;6876984;28;20236;-79
2021/11/06 06:16:29;;;;;;;39.33;22.10;;;;;;;9.86;62.51;100086.22;6863127;28;20310;-79
2021/11/06 06:19:50;;;;;;;59.20;25.47;;;;;;;9.41;63.46;100100.19;6863748;28;20211;-78
2021/11/06 06:23:12;;;;;;;64.53;25.63;;;;;;;9.68;63.27;100096.34;6863081;28;20237;-79
2021/11/06 06:26:33;;;;;;;63.00;24.50;;;;;;;9.69;63.60;100090.75;6862522;28;20247;-80
2021/11/06 06:29:57;;;;;;;88.60;24.83;;;;;;;9.23;65.14;100102.19;6879880;28;20202;-78
2021/11/06 06:33:19;;;;;;;55.70;23.13;;;;;;;9.47;64.98;100077.97;6886484;28;20277;-78
2021/11/06 06:36:40;;;;;;;102.70;26.37;;;;;;;9.21;65.17;100117.63;6880729;28;20247;-78
2021/11/06 06:40:02;;;;;;;149.20;29.63;;;;;;;9.03;64.85;100127.66;6888720;28;20215;-79
2021/11/06 06:43:24;;;;;;;67.50;22.47;;;;;;;8.89;66.64;100123.94;6870176;28;20306;-79
2021/11/06 06:46:47;;;;;;;56.27;20.67;;;;;;;9.42;65.36;100126.09;6864644;28;20202;-79
2021/11/06 06:50:09;;;;;;;46.83;19.60;;;;;;;9.89;63.96;100132.53;6862287;28;20197;-80
2021/11/06 06:53:31;;;;;;;51.83;21.77;;;;;;;9.72;63.67;100129.97;6862424;28;20770;-79
2021/11/06 06:56:52;;;;;;;79.70;21.70;;;;;;;9.80;63.76;100138.91;6884955;28;20266;-80
2021/11/06 07:00:15;;;;;;;47.93;21.70;;;;;;;9.87;63.64;100131.84;6886642;28;20254;-77
2021/11/06 07:03:37;;;;;;;42.97;18.97;;;;;;;10.09;62.82;100123.09;6871844;28;20284;-79
2021/11/06 07:06:59;;;;;;;54.40;20.43;;;;;;;9.79;62.86;100123.75;6888412;28;20216;-80
2021/11/06 07:10:21;;;;;;;36.60;19.57;;;;;;;10.17;63.10;100141.13;6888373;28;20211;-81
2021/11/06 07:13:43;;;;;;;38.40;18.63;;;;;;;10.16;62.59;100144.84;6888739;28;20206;-79
2021/11/06 07:17:05;;;;;;;34.70;16.43;;;;;;;10.05;62.02;100120.94;6887950;28;20231;-79
2021/11/06 07:20:28;;;;;;;25.30;15.30;;;;;;;10.25;62.11;100143.81;6864294;28;20219;-78
2021/11/06 07:23:49;;;;;;;34.27;17.40;;;;;;;10.10;62.28;100153.59;6888487;28;20212;-79
2021/11/06 07:27:11;;;;;;;30.60;14.53;;;;;;;9.99;61.92;100143.13;6871041;28;20228;-79
2021/11/06 07:30:33;;;;;;;26.13;15.50;;;;;;;10.09;61.85;100149.22;6859889;28;20227;-79
2021/11/06 07:33:55;;;;;;;21.90;13.40;;;;;;;10.13;61.61;100145.16;6860895;28;20231;-78
2021/11/06 07:37:18;;;;;;;26.20;14.13;;;;;;;10.07;61.43;100157.47;6863511;28;20232;-79
2021/11/06 07:40:39;;;;;;;20.90;13.50;;;;;;;9.58;61.69;100128.78;6885212;28;20224;-78
2021/11/06 07:44:01;;;;;;;19.87;13.07;;;;;;;9.85;62.06;100154.56;6878763;28;20806;-79
2021/11/06 07:47:26;;;;;;;33.63;14.67;;;;;;;9.61;61.70;100162.63;6891967;28;20664;-78
2021/11/06 07:50:48;;;;;;;21.27;13.83;;;;;;;9.87;62.06;100153.38;6884339;28;20223;-78
2021/11/06 07:54:11;;;;;;;25.33;15.23;;;;;;;9.85;62.29;100168.88;6887257;28;20222;-80
2021/11/06 07:57:33;;;;;;;22.07;13.43;;;;;;;10.29;60.96;100172.09;6877087;28;20709;-81
2021/11/06 08:00:57;;;;;;;20.77;13.60;;;;;;;10.30;60.86;100171.09;6869392;28;20238;-80
2021/11/06 08:04:19;;;;;;;20.37;12.87;;;;;;;10.20;60.20;100175.81;6887054;28;20214;-82
2021/11/06 08:07:41;;;;;;;17.93;13.37;;;;;;;10.06;60.98;100160.34;6886827;28;20210;-80
2021/11/06 08:11:04;;;;;;;18.83;13.00;;;;;;;10.29;61.02;100186.44;6885681;28;20742;-79
2021/11/06 08:14:25;;;;;;;21.57;13.13;;;;;;;10.11;60.27;100166.88;6881346;28;20201;-81
2021/11/06 08:17:47;;;;;;;18.63;13.77;;;;;;;10.13;59.95;100155.94;6866895;28;20281;-79
2021/11/06 08:21:09;;;;;;;21.77;13.20;;;;;;;9.94;60.94;100169.72;6886228;28;20279;-79
2021/11/06 08:24:31;;;;;;;25.40;14.23;;;;;;;10.06;61.18;100171.97;6882671;28;20235;-81
2021/11/06 08:27:55;;;;;;;21.03;14.33;;;;;;;10.05;61.19;100164.03;6878610;28;20204;-80
2021/11/06 08:31:16;;;;;;;19.93;13.47;;;;;;;10.16;60.66;100175.31;6881870;28;20232;-79
2021/11/06 08:34:38;;;;;;;21.10;12.60;;;;;;;10.21;60.19;100181.03;6887286;28;20208;-81
2021/11/06 08:38:00;;;;;;;20.23;14.10;;;;;;;10.23;60.47;100165.56;6886417;28;20223;-80
2021/11/06 08:41:22;;;;;;;18.03;12.93;;;;;;;10.30;60.11;100185.44;6886440;28;20250;-82
2021/11/06 08:44:45;;;;;;;19.70;13.07;;;;;;;10.31;59.38;100148.50;6886249;28;20207;-79
2021/11/06 08:48:07;;;;;;;20.43;14.20;;;;;;;10.38;59.88;100193.50;6887350;28;20215;-83
2021/11/06 08:51:28;;;;;;;23.50;17.57;;;;;;;10.34;60.72;100194.84;6886678;28;20301;-82
2021/11/06 08:54:51;;;;;;;17.60;13.27;;;;;;;10.42;60.34;100145.47;6889294;28;20196;-79
2021/11/06 08:58:13;;;;;;;18.57;12.90;;;;;;;10.66;60.07;100202.91;6882982;28;20237;-83
2021/11/06 09:01:36;;;;;;;20.03;14.17;;;;;;;10.83;59.48;100201.84;6861992;28;20228;-80
2021/11/06 09:04:58;;;;;;;18.27;13.00;;;;;;;10.90;60.52;100199.28;6864960;28;20238;-82
2021/11/06 09:08:21;;;;;;;20.90;14.20;;;;;;;10.60;60.37;100189.25;6869441;28;20300;-80
2021/11/06 09:11:43;;;;;;;20.40;12.20;;;;;;;10.44;59.62;100181.16;6865975;28;20231;-81
2021/11/06 09:15:06;;;;;;;19.23;13.47;;;;;;;10.82;60.10;100196.63;6887015;28;20205;-81
2021/11/06 09:18:29;;;;;;;20.80;13.67;;;;;;;10.87;59.14;100202.34;6892561;28;20242;-81
2021/11/06 09:21:51;;;;;;;24.33;16.03;;;;;;;10.70;60.61;100200.69;6892143;28;20311;-80
2021/11/06 09:25:13;;;;;;;19.03;14.60;;;;;;;10.86;60.65;100208.75;6891114;28;20208;-83
2021/11/06 09:28:40;;;;;;;24.17;16.00;;;;;;;11.16;59.70;100197.19;6892152;28;20208;-80
2021/11/06 09:32:02;;;;;;;21.03;14.50;;;;;;;11.32;59.29;100206.03;6890146;28;20240;-80
2021/11/06 09:35:25;;;;;;;18.70;12.93;;;;;;;10.77;59.13;100145.03;6891039;28;20209;-80
2021/11/06 09:38:47;;;;;;;20.50;14.07;;;;;;;11.30;59.48;100194.59;6892914;28;20565;-81
2021/11/06 09:42:09;;;;;;;21.10;14.47;;;;;;;11.41;58.93;100204.13;6892520;28;20234;-81
2021/11/06 09:45:30;;;;;;;22.43;14.83;;;;;;;11.48;58.19;100197.00;6891676;28;20328;-83
2021/11/06 09:48:52;;;;;;;20.37;13.63;;;;;;;11.41;58.58;100167.19;6882136;28;20209;-81
2021/11/06 09:52:16;;;;;;;21.43;14.23;;;;;;;11.63;58.18;100190.69;6871105;28;20700;-80
2021/11/06 09:55:37;;;;;;;20.00;14.57;;;;;;;11.42;58.47;100166.16;6888777;28;20290;-81
2021/11/06 09:59:01;;;;;;;21.63;14.60;;;;;;;11.49;57.57;100171.69;6910711;28;20228;-81
2021/11/06 10:02:22;;;;;;;20.13;14.20;;;;;;;11.26;58.74;100160.00;6886806;28;20273;-81
2021/11/06 10:05:45;;;;;;;20.30;14.00;;;;;;;11.49;57.98;100183.34;6894167;28;20216;-80
2021/11/06 10:09:09;;;;;;;18.80;14.03;;;;;;;11.33;57.60;100178.00;6879740;28;20699;-81
2021/11/06 10:12:46;;;;;;;22.27;15.37;;;;;;;11.44;59.54;100201.06;6887353;28;20224;-82
2021/11/06 10:16:15;;;;;;;22.13;16.07;;;;;;;11.87;57.66;100190.53;6893540;28;20300;-81
2021/11/06 10:24:05;;;;;;;22.43;15.30;;;;;;;11.92;58.19;100174.63;6892054;28;20221;-82
2021/11/06 10:27:54;;;;;;;24.80;15.93;;;;;;;11.16;58.59;100183.69;6886392;28;20244;-82
2021/11/06 10:31:15;;;;;;;18.57;13.63;;;;;;;11.34;57.18;100186.97;6870469;28;20303;-82
2021/11/06 10:34:39;;;;;;;19.43;14.37;;;;;;;11.82;59.10;100181.31;6864888;28;20205;-81
2021/11/06 10:38:04;;;;;;;19.40;13.37;;;;;;;11.70;56.94;100164.66;6870892;28;20610;-82
2021/11/06 10:41:28;;;;;;;19.57;13.47;;;;;;;11.91;58.02;100174.81;6867996;28;20221;-81
2021/11/06 10:44:51;;;;;;;18.83;13.63;;;;;;;11.87;57.97;100166.22;6945552;23;20239;-82
2021/11/06 10:48:16;;;;;;;21.00;15.37;;;;;;;12.14;58.05;100127.81;6931485;28;20550;-84
2021/11/06 10:51:39;;;;;;;23.97;17.10;;;;;;;12.04;57.74;100138.03;6930468;28;20199;-83
2021/11/06 10:55:03;;;;;;;24.57;15.97;;;;;;;12.63;57.12;100142.53;6932519;28;20237;-83
2021/11/06 10:58:30;;;;;;;17.60;13.33;;;;;;;12.62;56.44;100146.25;6932570;28;20241;-84
2021/11/06 11:01:54;;;;;;;22.20;14.13;;;;;;;11.63;57.18;100125.88;6933592;28;20219;-83
2021/11/06 11:05:42;;;;;;;20.40;14.93;;;;;;;11.91;58.03;100143.22;6930694;28;20380;-84
2021/11/06 11:09:09;;;;;;;18.27;13.43;;;;;;;12.29;56.40;100135.97;6894004;28;20211;-82
2021/11/06 11:12:31;;;;;;;18.60;13.90;;;;;;;12.47;56.67;100131.03;6914786;28;20783;-81
2021/11/06 11:15:54;;;;;;;16.43;13.47;;;;;;;12.45;56.64;100116.88;6872820;28;20244;-81
2021/11/06 11:19:17;;;;;;;19.23;14.63;;;;;;;12.02;56.20;100107.66;6873204;28;20228;-81
2021/11/06 11:22:39;;;;;;;23.70;15.53;;;;;;;10.58;61.35;100119.28;6874789;28;20219;-83
2021/11/06 11:26:01;;;;;;;23.13;15.87;;;;;;;11.76;60.81;100122.56;6902910;28;20223;-83
2021/11/06 11:29:28;;;;;;;20.40;15.40;;;;;;;11.60;59.39;100117.28;6885569;28;20255;-83
2021/11/06 11:32:49;;;;;;;19.40;14.80;;;;;;;11.94;56.85;100063.63;6890575;28;20216;-83
2021/11/06 11:36:15;;;;;;;22.43;15.37;;;;;;;11.77;56.86;100098.09;6913205;28;20227;-82
2021/11/06 11:39:38;;;;;;;21.90;16.40;;;;;;;11.59;58.54;100069.69;6907375;28;20214;-82
2021/11/06 11:43:07;;;;;;;21.17;14.93;;;;;;;11.58;58.55;100098.53;6896846;28;20214;-80
2021/11/06 11:46:37;;;;;;;21.70;14.87;;;;;;;10.88;61.05;100050.22;6913116;28;20573;-80
2021/11/06 11:50:02;;;;;;;21.67;15.37;;;;;;;11.31;59.70;100099.06;6920457;28;20210;-81
2021/11/06 11:53:30;;;;;;;26.70;18.63;;;;;;;11.44;60.99;100112.81;6898555;28;20688;-79
2021/11/06 11:57:13;;;;;;;28.10;18.87;;;;;;;11.29;60.75;100093.00;6899380;28;20766;-80
2021/11/06 12:00:39;;;;;;;28.20;17.27;;;;;;;11.35;59.35;100104.94;6899170;28;20208;-81
2021/11/06 12:04:17;;;;;;;22.43;15.73;;;;;;;11.20;59.04;100088.66;6899040;28;20587;-81
2021/11/06 12:07:38;;;;;;;20.60;14.90;;;;;;;11.24;61.29;100086.44;6900365;28;20234;-80
2021/11/06 12:11:16;;;;;;;21.90;15.73;;;;;;;12.31;58.20;100090.63;6902045;28;20199;-85
2021/11/06 12:14:44;;;;;;;21.20;14.40;;;;;;;12.59;56.95;100067.34;6890073;28;20696;-82
2021/11/06 12:18:44;;;;;;;20.10;15.30;;;;;;;12.85;56.03;100060.41;6873707;28;20228;-81
2021/11/06 12:22:11;;;;;;;18.77;13.83;;;;;;;13.17;54.59;100072.69;6873735;28;20212;-81
2021/11/06 12:25:33;;;;;;;18.27;14.37;;;;;;;13.23;55.04;100072.75;6875547;28;20224;-81
2021/11/06 12:29:24;;;;;;;24.47;18.07;;;;;;;13.41;53.97;100058.78;6912390;28;20204;-80
2021/11/06 12:32:47;;;;;;;21.43;15.63;;;;;;;13.35;53.55;100067.69;6918533;28;20199;-80
2021/11/06 12:36:17;;;;;;;19.30;14.63;;;;;;;13.47;54.06;100048.03;6906574;28;20213;-81
2021/11/06 12:39:47;;;;;;;20.90;15.37;;;;;;;13.22;54.17;100054.81;6902656;28;20274;-83
2021/11/06 12:43:17;;;;;;;18.00;15.23;;;;;;;13.43;53.70;100026.91;6900164;28;20227;-81
2021/11/06 12:46:40;;;;;;;20.33;15.27;;;;;;;13.87;52.89;100031.06;6905147;28;20195;-81
2021/11/06 12:50:15;;;;;;;19.70;15.57;;;;;;;13.85;52.90;100035.00;6884701;28;20209;-80
2021/11/06 12:53:39;;;;;;;22.57;16.10;;;;;;;13.53;53.86;100041.84;6904370;28;20597;-79
2021/11/06 12:57:03;;;;;;;25.00;19.73;;;;;;;13.80;52.63;100026.66;6900635;28;20595;-81
2021/11/06 13:00:28;;;;;;;18.47;15.17;;;;;;;14.08;51.58;100027.47;6895951;28;20224;-79
2021/11/06 13:03:51;;;;;;;22.13;17.47;;;;;;;13.98;52.22;100022.38;6886953;28;20235;-80
2021/11/06 13:07:13;;;;;;;26.97;19.93;;;;;;;14.10;51.50;100025.41;6902137;28;20215;-81
2021/11/06 13:10:34;;;;;;;30.17;23.03;;;;;;;14.20;51.70;100005.06;6884106;28;20577;-81
2021/11/06 13:13:56;;;;;;;46.83;32.10;;;;;;;14.35;50.96;100010.38;6875381;28;20611;-82
2021/11/06 13:17:23;;;;;;;53.70;37.37;;;;;;;13.68;52.63;100010.06;6877163;28;20237;-81
2021/11/06 13:20:48;;;;;;;17.87;14.47;;;;;;;13.92;52.55;99989.81;6877205;28;20676;-81
2021/11/06 13:24:09;;;;;;;17.10;14.10;;;;;;;14.39;51.17;99995.38;6901354;28;20220;-82
2021/11/06 13:27:36;;;;;;;53.83;34.53;;;;;;;14.51;50.72;99962.03;6887366;28;20205;-80
2021/11/06 13:30:59;;;;;;;16.23;13.77;;;;;;;14.75;49.33;99969.63;6878161;28;20707;-80
2021/11/06 13:34:21;;;;;;;36.43;24.87;;;;;;;14.61;49.94;99975.22;6887808;28;20320;-80
2021/11/06 13:37:44;;;;;;;36.57;24.80;;;;;;;14.51;50.40;99959.31;6892745;28;20228;-80
2021/11/06 13:41:16;;;;;;;59.00;36.07;;;;;;;14.51;50.84;99972.06;6909712;28;20219;-81
2021/11/06 13:44:38;;;;;;;62.90;39.17;;;;;;;14.56;50.68;99950.53;6887366;28;20234;-80
2021/11/06 13:47:59;;;;;;;26.37;19.57;;;;;;;14.14;51.58;99942.59;6901936;28;20207;-81
2021/11/06 13:51:24;;;;;;;20.80;16.73;;;;;;;14.00;52.07;99943.56;6882146;28;20216;-81
2021/11/06 13:54:47;;;;;;;25.70;18.10;;;;;;;13.73;52.67;99917.31;6888939;28;20220;-81
2021/11/06 13:58:09;;;;;;;19.90;15.97;;;;;;;13.83;52.60;99950.34;6902636;28;20231;-82
2021/11/06 14:01:31;;;;;;;17.33;14.30;;;;;;;14.04;52.32;99953.00;6906238;28;20215;-81
2021/11/06 14:05:00;;;;;;;20.20;14.67;;;;;;;13.47;53.67;99928.81;6906674;28;20235;-81
2021/11/06 14:08:21;;;;;;;16.63;12.70;;;;;;;13.91;52.56;99936.59;6902576;28;20687;-81
2021/11/06 14:11:49;;;;;;;20.83;13.63;;;;;;;14.20;51.93;99937.25;6904258;28;20223;-81
2021/11/06 14:15:13;;;;;;;15.00;12.67;;;;;;;13.83;52.67;99937.63;6903636;28;20224;-81
2021/11/06 14:18:36;;;;;;;15.90;13.07;;;;;;;13.52;53.84;99941.75;6878829;28;20224;-81
2021/11/06 14:22:00;;;;;;;20.23;14.23;;;;;;;13.14;54.80;99927.69;6875372;28;20209;-81
2021/11/06 14:25:27;;;;;;;20.50;16.23;;;;;;;13.31;54.19;99914.69;6874471;28;20233;-80
2021/11/06 14:28:52;;;;;;;22.67;16.90;;;;;;;13.35;54.12;99927.66;6875101;28;20215;-80
2021/11/06 14:32:14;;;;;;;30.23;19.20;;;;;;;13.01;54.79;99924.84;6873094;28;20217;-80
2021/11/06 14:35:38;;;;;;;29.87;21.47;;;;;;;13.01;55.33;99932.97;6872487;28;20713;-80
2021/11/06 14:39:03;;;;;;;29.83;20.93;;;;;;;13.02;54.71;99929.22;6873571;28;20713;-81
2021/11/06 14:42:28;;;;;;;28.43;20.63;;;;;;;13.15;54.28;99923.94;6873743;28;20264;-81
2021/11/06 14:45:58;;;;;;;27.10;18.60;;;;;;;12.56;55.42;99921.63;6883979;28;20323;-81
2021/11/06 14:49:26;;;;;;;30.63;21.07;;;;;;;11.95;58.11;99924.75;6900158;28;20231;-81
2021/11/06 14:52:47;;;;;;;30.93;19.83;;;;;;;11.87;57.90;99897.84;6899926;28;20219;-81
2021/11/06 14:56:10;;;;;;;29.13;21.23;;;;;;;11.77;57.97;99902.69;6899766;28;20218;-81
2021/11/06 14:59:31;;;;;;;30.40;20.73;;;;;;;11.83;57.54;99907.34;6899762;28;20239;-81
2021/11/06 15:02:59;;;;;;;27.87;19.63;;;;;;;11.98;56.84;99910.91;6900110;28;20202;-80
2021/11/06 15:06:21;;;;;;;31.13;21.50;;;;;;;11.83;57.16;99905.50;6893654;28;20205;-81
2021/11/06 15:09:43;;;;;;;31.37;20.87;;;;;;;11.79;56.70;99915.00;6872526;28;20212;-83
2021/11/06 15:13:06;;;;;;;33.90;21.70;;;;;;;11.43;57.63;99914.00;6892186;28;20239;-83
2021/11/06 15:16:33;;;;;;;32.37;22.63;;;;;;;11.39;57.75;99909.16;6896616;28;20204;-81
2021/11/06 15:19:57;;;;;;;29.37;20.03;;;;;;;11.36;57.86;99904.09;6898519;28;20224;-81
2021/11/06 15:23:21;;;;;;;31.67;22.63;;;;;;;11.09;58.72;99908.22;6898679;28;20224;-82
2021/11/06 15:26:43;;;;;;;29.77;21.43;;;;;;;11.12;58.13;99891.69;6881430;28;20203;-82
2021/11/06 15:30:06;;;;;;;33.87;22.43;;;;;;;11.19;57.56;99889.06;6875455;28;20212;-83
2021/11/06 15:33:27;;;;;;;33.10;22.10;;;;;;;11.45;57.34;99919.22;6888988;28;20234;-82
2021/11/06 15:36:50;;;;;;;38.83;26.03;;;;;;;11.29;56.68;99909.41;6902894;28;20214;-83
2021/11/06 15:40:16;;;;;;;39.73;27.37;;;;;;;10.88;58.24;99908.06;6902899;28;20235;-83
2021/11/06 15:43:37;;;;;;;34.73;23.50;;;;;;;10.48;57.99;99842.78;6901713;28;20232;-84
2021/11/06 15:46:59;;;;;;;34.40;22.67;;;;;;;10.66;58.09;99897.25;6901228;28;20215;-85
2021/11/06 15:50:21;;;;;;;33.47;22.67;;;;;;;10.50;59.36;99921.66;6894682;28;20209;-84
2021/11/06 15:53:44;;;;;;;32.57;22.43;;;;;;;10.67;59.38;99915.97;6874233;28;20231;-84
2021/11/06 15:57:06;;;;;;;31.77;21.53;;;;;;;11.02;58.00;99919.91;6874903;28;20207;-84
2021/11/06 16:00:28;;;;;;;31.30;21.03;;;;;;;10.58;58.17;99897.31;6873865;28;20236;-82
2021/11/06 16:03:49;;;;;;;32.83;22.33;;;;;;;10.53;59.19;99922.13;6875601;28;20222;-84
2021/11/06 16:07:13;;;;;;;31.97;22.70;;;;;;;10.08;58.96;99833.09;6875762;28;20276;-84
2021/11/06 16:10:36;;;;;;;35.63;22.13;;;;;;;10.27;59.29;99888.41;6875594;28;20289;-84
2021/11/06 16:13:58;;;;;;;29.27;19.63;;;;;;;10.51;59.51;99894.50;6875878;28;20235;-82
2021/11/06 16:17:20;;;;;;;35.37;21.77;;;;;;;10.49;59.84;99909.16;6876492;28;20208;-84
2021/11/06 16:20:45;;;;;;;30.03;20.20;;;;;;;10.77;59.87;99907.63;6880674;28;20197;-85
2021/11/06 16:24:07;;;;;;;31.57;19.93;;;;;;;10.46;59.93;99913.06;6894960;28;20223;-85
2021/11/06 16:27:30;;;;;;;30.40;19.20;;;;;;;10.17;59.55;99855.44;6905729;28;20219;-87
2021/11/06 16:30:52;;;;;;;33.63;21.33;;;;;;;10.42;59.23;99913.59;6903027;28;20210;-85
2021/11/06 16:34:14;;;;;;;31.07;20.70;;;;;;;10.15;59.49;99868.28;6905874;28;20238;-89
2021/11/06 16:37:36;;;;;;;42.90;25.87;;;;;;;10.39;60.60;99898.59;6884961;28;20212;-85
2021/11/06 16:40:58;;;;;;;30.80;20.13;;;;;;;10.20;60.15;99909.84;6884125;28;20216;-87
2021/11/06 16:44:21;;;;;;;34.80;20.57;;;;;;;10.28;59.37;99906.25;6913601;23;20230;-84
2021/11/06 16:47:43;;;;;;;31.23;20.40;;;;;;;10.21;59.93;99910.69;6908320;28;20672;-84
2021/11/06 16:51:06;;;;;;;37.40;22.00;;;;;;;9.86;60.64;99895.81;6896771;28;20286;-83
2021/11/06 16:54:27;;;;;;;35.67;21.93;;;;;;;9.99;60.67;99904.16;6896422;28;20418;-84
2021/11/06 16:57:49;;;;;;;41.03;22.83;;;;;;;9.69;61.39;99904.13;6895367;28;20203;-84
2021/11/06 17:01:12;;;;;;;44.40;26.40;;;;;;;9.84;61.64;99900.53;6896263;28;20207;-80
2021/11/06 17:04:34;;;;;;;39.90;21.03;;;;;;;9.51;61.93;99903.50;6895357;28;20231;-84
2021/11/06 17:08:14;;;;;;;42.87;23.70;;;;;;;8.93;63.05;99846.41;6894695;28;20262;-83
2021/11/06 17:11:36;;;;;;;43.13;22.93;;;;;;;9.62;61.37;99903.13;6895644;28;20285;-83
2021/11/06 17:14:57;;;;;;;46.40;23.63;;;;;;;8.90;64.24;99900.50;6896391;28;20231;-84
2021/11/06 17:18:21;;;;;;;54.13;23.07;;;;;;;9.08;63.71;99912.78;6895797;28;20237;-83
2021/11/06 17:21:43;;;;;;;45.63;23.00;;;;;;;9.61;63.14;99904.97;6894277;28;20208;-83
2021/11/06 17:25:06;;;;;;;35.73;20.13;;;;;;;9.71;61.71;99907.47;6894286;28;20238;-84
2021/11/06 17:28:28;;;;;;;37.53;21.27;;;;;;;9.83;62.01;99901.56;6895771;28;20761;-84
2021/11/06 17:31:50;;;;;;;30.83;18.30;;;;;;;9.74;61.10;99901.75;6894710;28;20212;-83
2021/11/06 17:35:13;;;;;;;37.63;21.40;;;;;;;9.74;61.71;99889.13;6888786;28;20612;-85
2021/11/06 17:38:35;;;;;;;34.60;18.97;;;;;;;9.82;60.87;99916.03;6888162;28;20232;-85
2021/11/06 17:41:58;;;;;;;37.87;19.57;;;;;;;9.77;60.35;99912.16;6884680;28;20211;-85
2021/11/06 17:45:22;;;;;;;32.00;21.33;;;;;;;9.62;61.68;99909.34;6862802;28;20730;-84
2021/11/06 17:48:43;;;;;;;32.37;19.03;;;;;;;9.68;60.93;99911.34;6908621;28;20209;-85
2021/11/06 17:52:10;;;;;;;32.60;19.37;;;;;;;9.34;60.83;99862.28;6917653;28;20699;-85
2021/11/06 17:55:33;;;;;;;36.07;22.10;;;;;;;9.32;61.85;99912.78;6906139;28;20224;-83
2021/11/06 17:58:54;;;;;;;40.57;21.90;;;;;;;9.66;61.51;99894.53;6869257;28;20238;-84
2021/11/06 18:02:17;;;;;;;36.63;21.27;;;;;;;9.69;61.12;99907.63;6863518;28;20222;-85
2021/11/06 18:05:40;;;;;;;30.30;18.37;;;;;;;9.76;60.41;99897.03;6862548;28;20235;-84
2021/11/06 18:09:03;;;;;;;39.27;21.57;;;;;;;9.79;60.59;99916.38;6903398;28;20684;-84
2021/11/06 18:12:26;;;;;;;33.93;20.27;;;;;;;9.86;60.42;99916.53;6916680;28;20198;-85
2021/11/06 18:15:48;;;;;;;35.67;20.30;;;;;;;9.90;59.87;99915.16;6915970;28;20237;-84
2021/11/06 18:19:09;;;;;;;31.67;19.20;;;;;;;9.89;60.03;99902.69;6882592;28;20234;-84
2021/11/06 18:22:31;;;;;;;33.13;20.40;;;;;;;10.05;59.34;99905.38;6889291;28;20247;-84
2021/11/06 18:25:54;;;;;;;29.20;18.50;;;;;;;9.83;59.68;99895.31;6876178;28;20258;-85
2021/11/06 18:29:16;;;;;;;31.67;20.13;;;;;;;10.01;60.08;99894.06;6883687;28;20209;-85
2021/11/06 18:32:38;;;;;;;35.07;19.73;;;;;;;9.76;60.48;99902.41;6888462;28;20580;-84
2021/11/06 18:36:00;;;;;;;37.33;19.53;;;;;;;9.70;60.31;99895.03;6887072;28;20709;-84
2021/11/06 18:39:21;;;;;;;31.27;19.83;;;;;;;9.86;60.38;99895.81;6888909;28;20706;-85
2021/11/06 18:42:44;;;;;;;36.60;20.70;;;;;;;9.78;59.86;99849.19;6886698;28;20557;-85
2021/11/06 18:46:16;;;;;;;31.40;17.67;;;;;;;9.91;59.22;99884.50;6887850;28;20233;-84
2021/11/06 18:49:38;;;;;;;33.37;17.87;;;;;;;9.64;60.29;99883.06;6894941;28;20372;-85
2021/11/06 18:52:59;;;;;;;33.50;19.57;;;;;;;9.67;60.82;99879.19;6904068;28;20207;-85
2021/11/06 18:56:22;;;;;;;41.40;19.47;;;;;;;9.50;60.78;99874.91;6884208;28;20207;-85
2021/11/06 18:59:47;;;;;;;38.77;19.40;;;;;;;8.85;62.90;99885.91;6877312;28;20235;-83
2021/11/06 19:03:09;;;;;;;45.63;20.77;;;;;;;8.45;64.21;99845.53;6884409;28;20253;-85
2021/11/06 19:06:30;;;;;;;39.13;19.83;;;;;;;9.08;63.10;99858.13;6875514;28;20585;-83
2021/11/06 19:09:52;;;;;;;49.80;25.53;;;;;;;9.29;62.46;99859.31;6873654;28;20216;-85
2021/11/06 19:13:14;;;;;;;51.30;22.40;;;;;;;9.05;62.72;99862.00;6859345;28;20582;-85
2021/11/06 19:16:37;;;;;;;75.80;23.30;;;;;;;8.04;65.87;99852.66;6869788;28;20213;-84
2021/11/06 19:20:01;;;;;;;67.50;24.07;;;;;;;8.36;65.79;99854.63;6878281;28;20225;-85
2021/11/06 19:23:22;;;;;;;51.07;21.53;;;;;;;8.18;67.14;99837.72;6868149;28;20570;-85
2021/11/06 19:26:46;;;;;;;50.17;20.80;;;;;;;8.77;65.51;99808.75;6862100;28;20720;-83
2021/11/06 19:30:10;;;;;;;39.37;18.40;;;;;;;9.03;63.39;99821.00;6875360;28;20205;-85
2021/11/06 19:33:34;;;;;;;39.80;20.37;;;;;;;9.28;62.64;99821.78;6862418;28;20236;-83
2021/11/06 19:36:56;;;;;;;34.07;18.17;;;;;;;9.21;62.53;99804.66;6861617;28;20661;-85
2021/11/06 19:40:21;;;;;;;39.57;18.80;;;;;;;9.29;61.84;99813.56;6862000;28;20587;-82
2021/11/06 19:43:43;;;;;;;31.83;18.27;;;;;;;9.23;62.27;99805.31;6873342;28;20325;-85
2021/11/06 19:47:06;;;;;;;35.27;18.83;;;;;;;9.30;62.06;99801.78;6862530;28;20210;-85
2021/11/06 19:50:31;;;;;;;41.10;18.80;;;;;;;8.59;63.79;99808.09;6878402;28;20206;-85
2021/11/06 19:53:52;;;;;;;32.83;17.37;;;;;;;8.66;63.38;99800.22;6887226;28;20276;-84
2021/11/06 19:57:14;;;;;;;71.33;21.73;;;;;;;8.07;65.66;99792.41;6888865;28;20208;-84
2021/11/06 20:00:36;;;;;;;47.50;22.03;;;;;;;8.09;66.02;99802.00;6888056;28;20224;-85
2021/11/06 20:03:58;;;;;;;42.83;21.30;;;;;;;7.81;66.40;99760.31;6887784;28;20316;-85
2021/11/06 20:07:21;;;;;;;40.67;20.07;;;;;;;8.08;65.88;99764.53;6888378;28;20210;-85
2021/11/06 20:10:43;;;;;;;42.97;19.90;;;;;;;8.73;64.62;99785.06;6883949;28;20217;-85